createdAt,value
2022-09-21T00:00:10.526Z,1018.53
2022-09-21T00:01:10.601Z,1018.54
2022-09-21T00:02:10.578Z,1018.53
2022-09-21T00:03:10.567Z,1018.56
2022-09-21T00:04:10.578Z,1018.55
2022-09-21T00:05:10.587Z,1018.56
2022-09-21T00:06:10.604Z,1018.59
2022-09-21T00:07:10.616Z,1018.57
2022-09-21T00:08:10.629Z,1018.55
2022-09-21T00:09:10.640Z,1018.55
2022-09-21T00:10:10.652Z,1018.58
2022-09-21T00:11:10.666Z,1018.57
2022-09-21T00:12:10.679Z,1018.60
2022-09-21T00:13:10.690Z,1018.61
2022-09-21T00:14:10.796Z,1018.59
2022-09-21T00:15:10.716Z,1018.63
2022-09-21T00:16:10.753Z,1018.60
2022-09-21T00:17:10.746Z,1018.64
2022-09-21T00:18:10.754Z,1018.68
2022-09-21T00:19:10.770Z,1018.70
2022-09-21T00:20:10.779Z,1018.65
2022-09-21T00:21:10.794Z,1018.68
2022-09-21T00:22:10.807Z,1018.68
2022-09-21T00:23:10.817Z,1018.68
2022-09-21T00:24:10.829Z,1018.68
2022-09-21T00:25:10.844Z,1018.68
2022-09-21T00:26:10.857Z,1018.68
2022-09-21T00:27:10.867Z,1018.68
2022-09-21T00:28:10.881Z,1018.68
2022-09-21T00:29:10.894Z,1018.64
2022-09-21T00:30:10.905Z,1018.64
2022-09-21T00:31:10.918Z,1018.64
2022-09-21T00:32:10.928Z,1018.67
2022-09-21T00:33:10.943Z,1018.64
2022-09-21T00:34:10.961Z,1018.62
2022-09-21T00:35:10.970Z,1018.62
2022-09-21T00:36:10.979Z,1018.68
2022-09-21T00:37:10.992Z,1018.66
2022-09-21T00:38:11.005Z,1018.65
2022-09-21T00:39:11.021Z,1018.67
2022-09-21T00:40:11.050Z,1018.67
2022-09-21T00:41:11.041Z,1018.64
2022-09-21T00:42:11.056Z,1018.71
2022-09-21T00:43:11.068Z,1018.72
2022-09-21T00:44:11.079Z,1018.67
2022-09-21T00:45:11.092Z,1018.72
2022-09-21T00:46:11.107Z,1018.69
2022-09-21T00:47:11.121Z,1018.71
2022-09-21T00:48:11.132Z,1018.71
2022-09-21T00:49:11.144Z,1018.71
2022-09-21T00:50:11.157Z,1018.71
2022-09-21T00:51:11.169Z,1018.71
2022-09-21T00:52:11.181Z,1018.70
2022-09-21T00:53:11.194Z,1018.71
2022-09-21T00:54:11.209Z,1018.70
2022-09-21T00:55:11.219Z,1018.71
2022-09-21T00:56:11.230Z,1018.73
2022-09-21T00:57:11.243Z,1018.70
2022-09-21T00:58:11.257Z,1018.69
2022-09-21T00:59:11.270Z,1018.71
2022-09-21T01:00:11.285Z,1018.72
2022-09-21T01:01:11.315Z,1018.72
2022-09-21T01:02:11.330Z,1018.75
2022-09-21T01:03:11.320Z,1018.74
2022-09-21T01:04:11.329Z,1018.74
2022-09-21T01:05:11.342Z,1018.74
2022-09-21T01:06:11.355Z,1018.76
2022-09-21T01:07:11.367Z,1018.75
2022-09-21T01:08:11.379Z,1018.77
2022-09-21T01:09:11.392Z,1018.81
2022-09-21T01:10:11.406Z,1018.83
2022-09-21T01:11:11.416Z,1018.87
2022-09-21T01:12:11.431Z,1018.80
2022-09-21T01:13:11.442Z,1018.77
2022-09-21T01:14:11.456Z,1018.79
2022-09-21T01:15:11.467Z,1018.78
2022-09-21T01:16:11.534Z,1018.77
2022-09-21T01:17:11.493Z,1018.78
2022-09-21T01:18:11.504Z,1018.81
2022-09-21T01:19:11.518Z,1018.82
2022-09-21T01:20:11.528Z,1018.78
2022-09-21T01:21:11.540Z,1018.79
2022-09-21T01:22:11.558Z,1018.80
2022-09-21T01:23:11.566Z,1018.82
2022-09-21T01:24:11.579Z,1018.80
2022-09-21T01:25:11.592Z,1018.82
2022-09-21T01:26:11.604Z,1018.80
2022-09-21T01:27:11.622Z,1018.82
2022-09-21T01:28:11.627Z,1018.80
2022-09-21T01:29:11.642Z,1018.79
2022-09-21T01:30:11.656Z,1018.78
2022-09-21T01:31:11.747Z,1018.84
2022-09-21T01:32:11.676Z,1018.82
2022-09-21T01:33:11.691Z,1018.84
2022-09-21T01:34:11.704Z,1018.86
2022-09-21T01:35:11.715Z,1018.83
2022-09-21T01:36:11.727Z,1018.83
2022-09-21T01:37:11.739Z,1018.86
2022-09-21T01:38:11.752Z,1018.87
2022-09-21T01:39:11.764Z,1018.85
2022-09-21T01:40:11.822Z,1018.90
2022-09-21T01:41:11.789Z,1018.88
2022-09-21T01:42:11.802Z,1018.89
2022-09-21T01:43:11.822Z,1018.90
2022-09-21T01:44:11.832Z,1018.90
2022-09-21T01:45:11.840Z,1018.91
2022-09-21T01:46:11.852Z,1018.90
2022-09-21T01:47:11.863Z,1018.88
2022-09-21T01:48:11.882Z,1018.90
2022-09-21T01:49:11.896Z,1018.91
2022-09-21T01:50:11.901Z,1018.95
2022-09-21T01:51:11.913Z,1018.92
2022-09-21T01:52:11.926Z,1018.93
2022-09-21T01:53:11.937Z,1018.93
2022-09-21T01:54:11.950Z,1018.92
2022-09-21T01:55:11.965Z,1018.95
2022-09-21T01:56:11.974Z,1018.95
2022-09-21T01:57:11.988Z,1018.92
2022-09-21T01:58:11.998Z,1018.92
2022-09-21T01:59:12.012Z,1018.89
2022-09-21T02:00:12.024Z,1018.90
2022-09-21T02:01:12.067Z,1018.93
2022-09-21T02:02:12.077Z,1018.91
2022-09-21T02:03:12.059Z,1018.94
2022-09-21T02:04:12.074Z,1018.97
2022-09-21T02:05:12.085Z,1019.00
2022-09-21T02:06:12.100Z,1018.97
2022-09-21T02:07:12.110Z,1018.96
2022-09-21T02:08:12.122Z,1018.98
2022-09-21T02:09:12.141Z,1018.96
2022-09-21T02:10:12.145Z,1018.94
2022-09-21T02:11:12.161Z,1018.93
2022-09-21T02:12:15.659Z,1018.93
2022-09-21T02:13:12.187Z,1018.92
2022-09-21T02:14:12.196Z,1018.90
2022-09-21T02:15:12.210Z,1018.88
2022-09-21T02:16:12.296Z,1018.89
2022-09-21T02:17:12.231Z,1018.89
2022-09-21T02:18:12.247Z,1018.87
2022-09-21T02:19:12.271Z,1018.84
2022-09-21T02:20:12.268Z,1018.87
2022-09-21T02:21:12.282Z,1018.90
2022-09-21T02:22:12.295Z,1018.88
2022-09-21T02:23:12.305Z,1018.86
2022-09-21T02:24:12.318Z,1018.88
2022-09-21T02:25:12.329Z,1018.85
2022-09-21T02:26:12.345Z,1018.90
2022-09-21T02:27:12.357Z,1018.87
2022-09-21T02:28:12.367Z,1018.88
2022-09-21T02:29:12.379Z,1018.87
2022-09-21T02:30:12.395Z,1018.88
2022-09-21T02:31:12.480Z,1018.87
2022-09-21T02:32:12.418Z,1018.87
2022-09-21T02:33:12.430Z,1018.90
2022-09-21T02:34:12.440Z,1018.92
2022-09-21T02:35:12.453Z,1018.89
2022-09-21T02:36:12.466Z,1018.88
2022-09-21T02:37:12.476Z,1018.96
2022-09-21T02:38:12.492Z,1018.93
2022-09-21T02:39:12.501Z,1018.94
2022-09-21T02:40:12.531Z,1018.92
2022-09-21T02:41:12.529Z,1018.96
2022-09-21T02:42:12.539Z,1018.93
2022-09-21T02:43:12.553Z,1018.94
2022-09-21T02:44:12.564Z,1018.98
2022-09-21T02:45:12.573Z,1019.01
2022-09-21T02:46:12.623Z,1018.99
2022-09-21T02:47:12.600Z,1019.00
2022-09-21T02:48:12.614Z,1019.01
2022-09-21T02:49:12.623Z,1019.01
2022-09-21T02:50:12.636Z,1019.03
2022-09-21T02:51:12.649Z,1019.02
2022-09-21T02:52:12.659Z,1019.03
2022-09-21T02:53:12.679Z,1019.01
2022-09-21T02:54:12.686Z,1019.04
2022-09-21T02:55:12.698Z,1019.07
2022-09-21T02:56:12.709Z,1019.03
2022-09-21T02:57:12.720Z,1019.10
2022-09-21T02:58:12.735Z,1019.09
2022-09-21T02:59:12.744Z,1019.08
2022-09-21T03:00:12.757Z,1019.09
2022-09-21T03:01:12.769Z,1019.10
2022-09-21T03:02:12.815Z,1019.15
2022-09-21T03:03:12.795Z,1019.12
2022-09-21T03:04:12.805Z,1019.15
2022-09-21T03:05:12.828Z,1019.20
2022-09-21T03:06:12.831Z,1019.23
2022-09-21T03:07:12.842Z,1019.24
2022-09-21T03:08:12.854Z,1019.25
2022-09-21T03:09:12.866Z,1019.24
2022-09-21T03:10:12.878Z,1019.26
2022-09-21T03:11:12.892Z,1019.26
2022-09-21T03:12:12.902Z,1019.26
2022-09-21T03:13:12.914Z,1019.24
2022-09-21T03:14:12.927Z,1019.26
2022-09-21T03:15:12.939Z,1019.19
2022-09-21T03:16:12.994Z,1019.25
2022-09-21T03:17:12.964Z,1019.24
2022-09-21T03:18:12.976Z,1019.24
2022-09-21T03:19:12.989Z,1019.27
2022-09-21T03:20:12.999Z,1019.26
2022-09-21T03:21:13.014Z,1019.26
2022-09-21T03:22:13.026Z,1019.29
2022-09-21T03:23:13.037Z,1019.25
2022-09-21T03:24:13.048Z,1019.29
2022-09-21T03:25:13.063Z,1019.23
2022-09-21T03:26:13.075Z,1019.27
2022-09-21T03:27:13.084Z,1019.25
2022-09-21T03:28:13.095Z,1019.24
2022-09-21T03:29:13.109Z,1019.23
2022-09-21T03:30:13.122Z,1019.20
2022-09-21T03:31:13.211Z,1019.24
2022-09-21T03:32:13.146Z,1019.27
2022-09-21T03:33:13.159Z,1019.28
2022-09-21T03:34:13.169Z,1019.22
2022-09-21T03:35:13.181Z,1019.25
2022-09-21T03:36:13.194Z,1019.26
2022-09-21T03:37:13.206Z,1019.26
2022-09-21T03:38:13.218Z,1019.28
2022-09-21T03:39:13.230Z,1019.30
2022-09-21T03:40:13.269Z,1019.28
2022-09-21T03:41:13.254Z,1019.30
2022-09-21T03:42:13.266Z,1019.27
2022-09-21T03:43:13.278Z,1019.32
2022-09-21T03:44:13.340Z,1019.30
2022-09-21T03:45:13.304Z,1019.27
2022-09-21T03:46:13.342Z,1019.27
2022-09-21T03:47:13.328Z,1019.27
2022-09-21T03:48:13.336Z,1019.28
2022-09-21T03:49:13.351Z,1019.27
2022-09-21T03:50:13.362Z,1019.29
2022-09-21T03:51:13.377Z,1019.27
2022-09-21T03:52:13.387Z,1019.32
2022-09-21T03:53:13.398Z,1019.27
2022-09-21T03:54:13.413Z,1019.24
2022-09-21T03:55:13.424Z,1019.28
2022-09-21T03:56:13.436Z,1019.28
2022-09-21T03:57:13.448Z,1019.27
2022-09-21T03:58:13.460Z,1019.28
2022-09-21T03:59:14.333Z,1019.27
2022-09-21T04:00:13.486Z,1019.27
2022-09-21T04:01:13.535Z,1019.29
2022-09-21T04:02:13.508Z,1019.27
2022-09-21T04:03:13.520Z,1019.28
2022-09-21T04:04:13.531Z,1019.29
2022-09-21T04:05:13.542Z,1019.30
2022-09-21T04:06:13.555Z,1019.30
2022-09-21T04:07:13.569Z,1019.30
2022-09-21T04:08:13.580Z,1019.33
2022-09-21T04:09:13.592Z,1019.30
2022-09-21T04:10:13.607Z,1019.31
2022-09-21T04:11:13.618Z,1019.32
2022-09-21T04:12:13.630Z,1019.33
2022-09-21T04:13:13.638Z,1019.35
2022-09-21T04:14:13.652Z,1019.36
2022-09-21T04:15:13.665Z,1019.33
2022-09-21T04:16:13.691Z,1019.39
2022-09-21T04:17:13.688Z,1019.38
2022-09-21T04:18:13.700Z,1019.41
2022-09-21T04:19:13.716Z,1019.38
2022-09-21T04:20:13.744Z,1019.39
2022-09-21T04:21:13.751Z,1019.39
2022-09-21T04:22:13.749Z,1019.36
2022-09-21T04:23:13.761Z,1019.37
2022-09-21T04:24:13.776Z,1019.40
2022-09-21T04:25:13.793Z,1019.42
2022-09-21T04:26:13.802Z,1019.40
2022-09-21T04:27:13.809Z,1019.44
2022-09-21T04:28:13.819Z,1019.42
2022-09-21T04:29:13.833Z,1019.44
2022-09-21T04:30:13.849Z,1019.43
2022-09-21T04:31:13.972Z,1019.42
2022-09-21T04:32:13.869Z,1019.42
2022-09-21T04:33:13.883Z,1019.44
2022-09-21T04:34:13.893Z,1019.41
2022-09-21T04:35:13.908Z,1019.41
2022-09-21T04:36:13.918Z,1019.42
2022-09-21T04:37:13.928Z,1019.45
2022-09-21T04:38:13.941Z,1019.42
2022-09-21T04:39:13.952Z,1019.45
2022-09-21T04:40:14.028Z,1019.46
2022-09-21T04:41:13.976Z,1019.42
2022-09-21T04:42:13.990Z,1019.45
2022-09-21T04:43:14.000Z,1019.44
2022-09-21T04:44:14.012Z,1019.44
2022-09-21T04:45:14.024Z,1019.48
2022-09-21T04:46:14.073Z,1019.41
2022-09-21T04:47:14.048Z,1019.45
2022-09-21T04:48:14.059Z,1019.44
2022-09-21T04:49:14.071Z,1019.41
2022-09-21T04:50:14.084Z,1019.41
2022-09-21T04:51:14.098Z,1019.44
2022-09-21T04:52:18.885Z,1019.41
2022-09-21T04:53:14.117Z,1019.43
2022-09-21T04:54:14.132Z,1019.42
2022-09-21T04:55:14.144Z,1019.44
2022-09-21T04:56:14.154Z,1019.48
2022-09-21T04:57:14.166Z,1019.51
2022-09-21T04:58:14.178Z,1019.54
2022-09-21T04:59:14.192Z,1019.52
2022-09-21T05:00:14.215Z,1019.55
2022-09-21T05:01:14.257Z,1019.54
2022-09-21T05:02:14.225Z,1019.53
2022-09-21T05:03:14.293Z,1019.51
2022-09-21T05:04:14.251Z,1019.57
2022-09-21T05:05:14.263Z,1019.55
2022-09-21T05:06:14.276Z,1019.59
2022-09-21T05:07:14.288Z,1019.58
2022-09-21T05:08:14.297Z,1019.61
2022-09-21T05:09:14.312Z,1019.60
2022-09-21T05:10:14.324Z,1019.60
2022-09-21T05:11:14.339Z,1019.63
2022-09-21T05:12:14.343Z,1019.64
2022-09-21T05:13:19.111Z,1019.62
2022-09-21T05:14:14.369Z,1019.68
2022-09-21T05:15:14.384Z,1019.68
2022-09-21T05:16:14.398Z,1019.68
2022-09-21T05:17:14.406Z,1019.70
2022-09-21T05:18:14.419Z,1019.68
2022-09-21T05:19:14.430Z,1019.71
2022-09-21T05:20:14.442Z,1019.74
2022-09-21T05:21:14.454Z,1019.74
2022-09-21T05:22:14.466Z,1019.75
2022-09-21T05:23:16.821Z,1019.75
2022-09-21T05:24:14.488Z,1019.81
2022-09-21T05:25:14.501Z,1019.81
2022-09-21T05:26:14.515Z,1019.79
2022-09-21T05:27:14.527Z,1019.83
2022-09-21T05:28:14.537Z,1019.85
2022-09-21T05:29:14.552Z,1019.81
2022-09-21T05:30:14.561Z,1019.80
2022-09-21T05:31:18.109Z,1019.82
2022-09-21T05:32:14.587Z,1019.82
2022-09-21T05:33:14.597Z,1019.84
2022-09-21T05:34:14.610Z,1019.84
2022-09-21T05:35:14.624Z,1019.81
2022-09-21T05:36:14.634Z,1019.86
2022-09-21T05:37:14.648Z,1019.89
2022-09-21T05:38:14.659Z,1019.87
2022-09-21T05:39:14.670Z,1019.87
2022-09-21T05:40:14.706Z,1019.88
2022-09-21T05:41:14.694Z,1019.91
2022-09-21T05:42:14.707Z,1019.92
2022-09-21T05:43:14.719Z,1019.94
2022-09-21T05:44:14.732Z,1019.94
2022-09-21T05:45:14.744Z,1019.93
2022-09-21T05:46:14.805Z,1019.96
2022-09-21T05:47:14.767Z,1019.98
2022-09-21T05:48:14.779Z,1019.96
2022-09-21T05:49:14.790Z,1019.96
2022-09-21T05:50:14.803Z,1020.01
2022-09-21T05:51:14.816Z,1019.98
2022-09-21T05:52:14.826Z,1020.05
2022-09-21T05:53:14.840Z,1019.98
2022-09-21T05:54:14.851Z,1020.01
2022-09-21T05:55:14.863Z,1020.01
2022-09-21T05:56:14.876Z,1020.01
2022-09-21T05:57:14.891Z,1019.97
2022-09-21T05:58:14.902Z,1019.98
2022-09-21T05:59:14.912Z,1020.00
2022-09-21T06:00:14.924Z,1020.00
2022-09-21T06:01:14.960Z,1019.98
2022-09-21T06:02:14.995Z,1020.02
2022-09-21T06:03:17.649Z,1020.00
2022-09-21T06:04:14.974Z,1020.02
2022-09-21T06:05:14.987Z,1020.01
2022-09-21T06:06:14.997Z,1019.98
2022-09-21T06:07:15.011Z,1019.97
2022-09-21T06:08:15.025Z,1019.98
2022-09-21T06:09:15.033Z,1019.98
2022-09-21T06:10:15.052Z,1019.97
2022-09-21T06:11:15.062Z,1019.99
2022-09-21T06:12:15.074Z,1019.97
2022-09-21T06:13:15.087Z,1019.98
2022-09-21T06:14:15.099Z,1019.98
2022-09-21T06:15:15.115Z,1019.99
2022-09-21T06:16:15.191Z,1019.96
2022-09-21T06:17:15.136Z,1019.97
2022-09-21T06:18:18.026Z,1020.00
2022-09-21T06:19:15.164Z,1019.98
2022-09-21T06:20:15.175Z,1019.98
2022-09-21T06:21:15.188Z,1020.01
2022-09-21T06:22:15.206Z,1019.99
2022-09-21T06:23:15.423Z,1020.02
2022-09-21T06:24:15.227Z,1020.04
2022-09-21T06:25:15.237Z,1020.03
2022-09-21T06:26:15.252Z,1020.04
2022-09-21T06:27:15.264Z,1020.06
2022-09-21T06:28:15.277Z,1020.09
2022-09-21T06:29:15.290Z,1020.07
2022-09-21T06:30:15.302Z,1020.10
2022-09-21T06:31:15.316Z,1020.08
2022-09-21T06:32:15.328Z,1020.12
2022-09-21T06:33:15.344Z,1020.11
2022-09-21T06:34:15.354Z,1020.16
2022-09-21T06:35:15.368Z,1020.14
2022-09-21T06:36:15.382Z,1020.16
2022-09-21T06:37:15.394Z,1020.13
2022-09-21T06:38:15.407Z,1020.18
2022-09-21T06:39:15.422Z,1020.16
2022-09-21T06:40:15.458Z,1020.15
2022-09-21T06:41:20.144Z,1020.19
2022-09-21T06:42:15.464Z,1020.20
2022-09-21T06:43:15.477Z,1020.24
2022-09-21T06:44:15.490Z,1020.24
2022-09-21T06:45:15.502Z,1020.26
2022-09-21T06:46:15.569Z,1020.28
2022-09-21T06:47:15.533Z,1020.25
2022-09-21T06:48:15.544Z,1020.26
2022-09-21T06:49:15.562Z,1020.21
2022-09-21T06:50:15.572Z,1020.28
2022-09-21T06:51:15.587Z,1020.26
2022-09-21T06:52:15.599Z,1020.29
2022-09-21T06:53:15.619Z,1020.29
2022-09-21T06:54:15.636Z,1020.25
2022-09-21T06:55:15.644Z,1020.36
2022-09-21T06:56:15.658Z,1020.37
2022-09-21T06:57:15.683Z,1020.35
2022-09-21T06:58:15.718Z,1020.43
2022-09-21T06:59:15.700Z,1020.40
2022-09-21T07:00:15.719Z,1020.40
2022-09-21T07:01:15.806Z,1020.36
2022-09-21T07:02:15.806Z,1020.45
2022-09-21T07:03:15.758Z,1020.45
2022-09-21T07:04:15.773Z,1020.46
2022-09-21T07:05:15.790Z,1020.41
2022-09-21T07:06:15.806Z,1020.42
2022-09-21T07:07:15.826Z,1020.50
2022-09-21T07:10:19.912Z,1020.44
2022-09-21T07:11:15.898Z,1020.44
2022-09-21T07:12:15.892Z,1020.47
2022-09-21T07:13:15.908Z,1020.46
2022-09-21T07:14:15.923Z,1020.45
2022-09-21T07:15:15.937Z,1020.46
2022-09-21T07:16:15.963Z,1020.53
2022-09-21T07:17:16.110Z,1020.50
2022-09-21T07:18:15.981Z,1020.51
2022-09-21T07:19:16.008Z,1020.52
2022-09-21T07:20:16.014Z,1020.54
2022-09-21T07:21:16.028Z,1020.53
2022-09-21T07:22:16.045Z,1020.60
2022-09-21T07:23:16.062Z,1020.59
2022-09-21T07:24:16.076Z,1020.62
2022-09-21T07:25:16.092Z,1020.65
2022-09-21T07:26:16.105Z,1020.63
2022-09-21T07:27:16.124Z,1020.62
2022-09-21T07:28:16.137Z,1020.65
2022-09-21T07:29:16.156Z,1020.62
2022-09-21T07:30:16.169Z,1020.61
2022-09-21T07:31:16.216Z,1020.60
2022-09-21T07:32:16.201Z,1020.60
2022-09-21T07:33:16.217Z,1020.57
2022-09-21T07:34:16.235Z,1020.56
2022-09-21T07:35:16.258Z,1020.57
2022-09-21T07:36:16.267Z,1020.54
2022-09-21T07:37:16.283Z,1020.53
2022-09-21T07:38:16.300Z,1020.54
2022-09-21T07:39:16.315Z,1020.54
2022-09-21T07:40:16.352Z,1020.51
2022-09-21T07:41:16.344Z,1020.56
2022-09-21T07:42:16.363Z,1020.55
2022-09-21T07:43:16.415Z,1020.57
2022-09-21T07:44:16.395Z,1020.56
2022-09-21T07:45:16.411Z,1020.55
2022-09-21T07:46:16.452Z,1020.54
2022-09-21T07:47:16.444Z,1020.55
2022-09-21T07:48:16.460Z,1020.52
2022-09-21T07:49:16.476Z,1020.53
2022-09-21T07:50:16.494Z,1020.52
2022-09-21T07:51:16.510Z,1020.58
2022-09-21T07:52:16.530Z,1020.57
2022-09-21T07:53:16.550Z,1020.60
2022-09-21T07:54:16.558Z,1020.56
2022-09-21T07:55:16.576Z,1020.55
2022-09-21T07:56:16.593Z,1020.56
2022-09-21T07:57:16.610Z,1020.58
2022-09-21T07:58:16.624Z,1020.55
2022-09-21T07:59:16.641Z,1020.51
2022-09-21T08:00:16.660Z,1020.55
2022-09-21T08:01:16.733Z,1020.55
2022-09-21T08:02:16.752Z,1020.54
2022-09-21T08:03:16.725Z,1020.55
2022-09-21T08:04:16.724Z,1020.58
2022-09-21T08:05:16.741Z,1020.57
2022-09-21T08:06:16.759Z,1020.58
2022-09-21T08:07:16.777Z,1020.61
2022-09-21T08:08:16.794Z,1020.66
2022-09-21T08:09:16.809Z,1020.62
2022-09-21T08:10:16.827Z,1020.64
2022-09-21T08:11:16.845Z,1020.63
2022-09-21T08:12:16.861Z,1020.64
2022-09-21T08:13:16.876Z,1020.63
2022-09-21T08:14:16.895Z,1020.62
2022-09-21T08:15:43.926Z,1020.57
2022-09-21T08:16:16.957Z,1020.62
2022-09-21T08:17:16.943Z,1020.61
2022-09-21T08:18:16.959Z,1020.65
2022-09-21T08:19:16.978Z,1020.65
2022-09-21T08:20:16.994Z,1020.63
2022-09-21T08:21:17.011Z,1020.65
2022-09-21T08:22:17.032Z,1020.67
2022-09-21T08:23:17.044Z,1020.66
2022-09-21T08:24:17.059Z,1020.66
2022-09-21T08:25:17.079Z,1020.68
2022-09-21T08:26:17.095Z,1020.65
2022-09-21T08:27:17.116Z,1020.68
2022-09-21T08:28:17.129Z,1020.71
2022-09-21T08:29:17.146Z,1020.66
2022-09-21T08:30:17.163Z,1020.70
2022-09-21T08:31:17.258Z,1020.71
2022-09-21T08:32:33.372Z,1020.77
2022-09-21T08:33:17.216Z,1020.68
2022-09-21T08:34:17.233Z,1020.71
2022-09-21T08:35:17.249Z,1020.69
2022-09-21T08:36:17.266Z,1020.68
2022-09-21T08:37:17.283Z,1020.70
2022-09-21T08:38:17.305Z,1020.75
2022-09-21T08:39:17.317Z,1020.71
2022-09-21T08:40:17.396Z,1020.76
2022-09-21T08:41:17.354Z,1020.77
2022-09-21T08:42:17.373Z,1020.75
2022-09-21T08:43:17.390Z,1020.76
2022-09-21T08:44:17.407Z,1020.74
2022-09-21T08:45:17.425Z,1020.74
2022-09-21T08:46:17.489Z,1020.76
2022-09-21T08:47:17.459Z,1020.74
2022-09-21T08:48:17.479Z,1020.78
2022-09-21T08:49:17.499Z,1020.76
2022-09-21T08:50:17.513Z,1020.80
2022-09-21T08:51:17.536Z,1020.85
2022-09-21T08:52:17.580Z,1020.80
2022-09-21T08:53:17.570Z,1020.81
2022-09-21T08:54:17.586Z,1020.82
2022-09-21T08:55:17.864Z,1020.85
2022-09-21T08:56:17.622Z,1020.88
2022-09-21T08:57:17.643Z,1020.87
2022-09-21T08:58:17.659Z,1020.84
2022-09-21T08:59:17.677Z,1020.82
2022-09-21T09:00:17.695Z,1020.80
2022-09-21T09:01:17.767Z,1020.88
2022-09-21T09:02:17.807Z,1020.90
2022-09-21T09:03:17.750Z,1020.84
2022-09-21T09:04:17.769Z,1020.85
2022-09-21T09:05:17.792Z,1020.86
2022-09-21T09:06:17.808Z,1020.83
2022-09-21T09:07:17.826Z,1020.81
2022-09-21T09:08:17.843Z,1020.77
2022-09-21T09:09:17.865Z,1020.77
2022-09-21T09:10:17.883Z,1020.74
2022-09-21T09:11:17.903Z,1020.76
2022-09-21T09:12:17.922Z,1020.75
2022-09-21T09:13:17.938Z,1020.75
2022-09-21T09:14:17.965Z,1020.74
2022-09-21T09:15:17.982Z,1020.79
2022-09-21T09:16:18.026Z,1020.75
2022-09-21T09:17:18.020Z,1020.77
2022-09-21T09:18:18.039Z,1020.78
2022-09-21T09:19:18.058Z,1020.78
2022-09-21T09:20:18.079Z,1020.79
2022-09-21T09:21:24.852Z,1020.78
2022-09-21T09:22:18.116Z,1020.79
2022-09-21T09:23:18.135Z,1020.83
2022-09-21T09:24:18.154Z,1020.78
2022-09-21T09:25:18.173Z,1020.79
2022-09-21T09:26:18.193Z,1020.76
2022-09-21T09:27:18.212Z,1020.79
2022-09-21T09:28:18.231Z,1020.77
2022-09-21T09:29:18.251Z,1020.77
2022-09-21T09:30:18.268Z,1020.70
2022-09-21T09:31:18.337Z,1020.73
2022-09-21T09:32:18.307Z,1020.74
2022-09-21T09:33:18.328Z,1020.70
2022-09-21T09:34:18.348Z,1020.74
2022-09-21T09:35:18.373Z,1020.72
2022-09-21T09:36:30.093Z,1020.75
2022-09-21T09:37:18.407Z,1020.75
2022-09-21T09:38:18.424Z,1020.77
2022-09-21T09:39:18.442Z,1020.79
2022-09-21T09:40:18.517Z,1020.76
2022-09-21T09:41:18.529Z,1020.76
2022-09-21T09:42:18.499Z,1020.72
2022-09-21T09:43:18.517Z,1020.75
2022-09-21T09:44:18.543Z,1020.75
2022-09-21T09:45:18.814Z,1020.76
2022-09-21T09:46:18.600Z,1020.78
2022-09-21T09:47:18.591Z,1020.78
2022-09-21T09:48:18.609Z,1020.80
2022-09-21T09:49:18.628Z,1020.82
2022-09-21T09:50:18.649Z,1020.76
2022-09-21T09:51:18.665Z,1020.78
2022-09-21T09:52:18.686Z,1020.79
2022-09-21T09:53:18.702Z,1020.78
2022-09-21T09:54:18.718Z,1020.76
2022-09-21T09:55:18.738Z,1020.78
2022-09-21T09:56:18.756Z,1020.76
2022-09-21T09:57:18.774Z,1020.77
2022-09-21T09:58:18.791Z,1020.76
2022-09-21T09:59:18.810Z,1020.77
2022-09-21T10:00:18.828Z,1020.74
2022-09-21T10:01:18.868Z,1020.72
2022-09-21T10:02:18.866Z,1020.67
2022-09-21T10:03:18.885Z,1020.72
2022-09-21T10:04:18.973Z,1020.77
2022-09-21T10:05:18.921Z,1020.80
2022-09-21T10:06:18.938Z,1020.81
2022-09-21T10:07:18.959Z,1020.74
2022-09-21T10:08:18.974Z,1020.73
2022-09-21T10:09:18.994Z,1020.77
2022-09-21T10:10:19.011Z,1020.77
2022-09-21T10:11:19.031Z,1020.79
2022-09-21T10:12:19.047Z,1020.77
2022-09-21T10:13:19.071Z,1020.77
2022-09-21T10:14:19.087Z,1020.78
2022-09-21T10:15:19.107Z,1020.80
2022-09-21T10:16:19.187Z,1020.82
2022-09-21T10:17:19.142Z,1020.77
2022-09-21T10:18:19.162Z,1020.76
2022-09-21T10:19:19.184Z,1020.81
2022-09-21T10:20:19.198Z,1020.75
2022-09-21T10:21:19.219Z,1020.74
2022-09-21T10:22:19.237Z,1020.75
2022-09-21T10:23:19.258Z,1020.77
2022-09-21T10:24:19.276Z,1020.74
2022-09-21T10:25:19.293Z,1020.74
2022-09-21T10:26:19.317Z,1020.71
2022-09-21T10:27:19.334Z,1020.69
2022-09-21T10:28:19.353Z,1020.70
2022-09-21T10:29:19.373Z,1020.68
2022-09-21T10:30:19.397Z,1020.67
2022-09-21T10:31:19.493Z,1020.69
2022-09-21T10:32:19.433Z,1020.70
2022-09-21T10:33:19.454Z,1020.69
2022-09-21T10:34:19.503Z,1020.71
2022-09-21T10:35:19.495Z,1020.73
2022-09-21T10:36:19.514Z,1020.70
2022-09-21T10:37:19.542Z,1020.69
2022-09-21T10:38:22.445Z,1020.66
2022-09-21T10:39:19.574Z,1020.62
2022-09-21T10:40:19.666Z,1020.62
2022-09-21T10:41:19.612Z,1020.59
2022-09-21T10:42:19.632Z,1020.58
2022-09-21T10:43:19.657Z,1020.57
2022-09-21T10:44:19.676Z,1020.55
2022-09-21T10:45:19.693Z,1020.55
2022-09-21T10:46:19.773Z,1020.53
2022-09-21T10:47:19.736Z,1020.59
2022-09-21T10:48:19.755Z,1020.62
2022-09-21T10:49:19.780Z,1020.62
2022-09-21T10:50:19.838Z,1020.64
2022-09-21T10:51:19.816Z,1020.60
2022-09-21T10:52:19.838Z,1020.63
2022-09-21T10:53:19.855Z,1020.65
2022-09-21T10:54:19.877Z,1020.57
2022-09-21T10:55:19.897Z,1020.57
2022-09-21T10:56:19.935Z,1020.61
2022-09-21T10:57:19.957Z,1020.63
2022-09-21T10:58:20.058Z,1020.61
2022-09-21T10:59:19.976Z,1020.63
2022-09-21T11:00:20.136Z,1020.64
2022-09-21T11:01:20.068Z,1020.59
2022-09-21T11:02:20.077Z,1020.56
2022-09-21T11:03:20.058Z,1020.55
2022-09-21T11:04:20.076Z,1020.54
2022-09-21T11:05:20.100Z,1020.52
2022-09-21T11:06:20.119Z,1020.49
2022-09-21T11:07:20.137Z,1020.47
2022-09-21T11:08:20.159Z,1020.51
2022-09-21T11:09:20.177Z,1020.48
2022-09-21T11:10:20.199Z,1020.48
2022-09-21T11:11:20.218Z,1020.54
2022-09-21T11:12:20.237Z,1020.54
2022-09-21T11:13:20.260Z,1020.53
2022-09-21T11:14:20.278Z,1020.56
2022-09-21T11:15:20.301Z,1020.46
2022-09-21T11:16:20.358Z,1020.50
2022-09-21T11:17:20.338Z,1020.46
2022-09-21T11:18:20.358Z,1020.45
2022-09-21T11:19:20.379Z,1020.45
2022-09-21T11:20:20.399Z,1020.38
2022-09-21T11:21:20.418Z,1020.39
2022-09-21T11:22:20.439Z,1020.37
2022-09-21T11:23:20.461Z,1020.42
2022-09-21T11:24:20.481Z,1020.38
2022-09-21T11:25:20.501Z,1020.42
2022-09-21T11:26:20.522Z,1020.45
2022-09-21T11:27:20.541Z,1020.45
2022-09-21T11:28:20.565Z,1020.50
2022-09-21T11:29:20.627Z,1020.51
2022-09-21T11:30:20.603Z,1020.52
2022-09-21T11:31:20.677Z,1020.53
2022-09-21T11:32:20.642Z,1020.51
2022-09-21T11:33:20.664Z,1020.53
2022-09-21T11:34:20.685Z,1020.51
2022-09-21T11:35:20.706Z,1020.49
2022-09-21T11:36:20.725Z,1020.51
2022-09-21T11:37:20.747Z,1020.53
2022-09-21T11:38:20.766Z,1020.51
2022-09-21T11:39:20.790Z,1020.48
2022-09-21T11:40:20.819Z,1020.49
2022-09-21T11:41:20.829Z,1020.47
2022-09-21T11:42:20.848Z,1020.43
2022-09-21T11:43:23.124Z,1020.49
2022-09-21T11:44:20.889Z,1020.48
2022-09-21T11:45:20.909Z,1020.47
2022-09-21T11:46:21.026Z,1020.49
2022-09-21T11:47:20.973Z,1020.48
2022-09-21T11:48:20.972Z,1020.43
2022-09-21T11:49:20.991Z,1020.41
2022-09-21T11:50:30.385Z,1020.39
2022-09-21T11:51:21.033Z,1020.40
2022-09-21T11:52:21.053Z,1020.42
2022-09-21T11:53:21.077Z,1020.40
2022-09-21T11:54:21.095Z,1020.36
2022-09-21T11:55:21.116Z,1020.33
2022-09-21T11:56:21.137Z,1020.34
2022-09-21T11:57:21.159Z,1020.41
2022-09-21T11:58:21.182Z,1020.40
2022-09-21T11:59:21.199Z,1020.40
2022-09-21T12:00:21.218Z,1020.35
2022-09-21T12:01:21.241Z,1020.38
2022-09-21T12:02:21.439Z,1020.36
2022-09-21T12:03:21.282Z,1020.38
2022-09-21T12:04:21.305Z,1020.35
2022-09-21T12:05:21.323Z,1020.39
2022-09-21T12:06:21.343Z,1020.40
2022-09-21T12:07:21.363Z,1020.38